sensor_id;sensor_type;location;lat;lon;timestamp;pressure;altitude;pressure_sealevel;temperature;humidity
46583;BME280;32309;48.858;8.252;2023-08-21T00:24:13;100732.25;;;24.05;75.13
46583;BME280;32309;48.858;8.252;2023-08-21T00:26:34;100736.03;;;24.02;75.29
46583;BME280;32309;48.858;8.252;2023-08-21T00:29:29;100727.59;;;23.99;73.46
46583;BME280;32309;48.858;8.252;2023-08-21T00:31:41;100720.16;;;23.94;74.48
46583;BME280;32309;48.858;8.252;2023-08-21T00:45:40;100721.94;;;23.85;76.04
46583;BME280;32309;48.858;8.252;2023-08-21T00:47:50;100715.50;;;23.88;75.92
46583;BME280;32309;48.858;8.252;2023-08-21T00:59:24;100712.84;;;23.88;74.54
46583;BME280;32309;48.858;8.252;2023-08-21T01:01:40;100709.03;;;23.82;74.29
46583;BME280;32309;48.858;8.252;2023-08-21T01:04:14;100712.34;;;23.76;75.83
46583;BME280;32309;48.858;8.252;2023-08-21T01:15:06;100729.16;;;23.50;76.87
46583;BME280;32309;48.858;8.252;2023-08-21T01:17:44;100730.16;;;23.49;76.79
46583;BME280;32309;48.858;8.252;2023-08-21T01:26:17;100736.44;;;23.48;77.51
46583;BME280;32309;48.858;8.252;2023-08-21T01:28:33;100739.09;;;23.48;76.41
46583;BME280;32309;48.858;8.252;2023-08-21T01:30:36;100735.75;;;23.46;76.36
46583;BME280;32309;48.858;8.252;2023-08-21T01:36:09;100739.09;;;23.48;77.27
46583;BME280;32309;48.858;8.252;2023-08-21T01:44:09;100740.56;;;23.42;76.77
46583;BME280;32309;48.858;8.252;2023-08-21T01:46:22;100739.06;;;23.40;76.12
46583;BME280;32309;48.858;8.252;2023-08-21T01:48:36;100739.38;;;23.37;78.25
46583;BME280;32309;48.858;8.252;2023-08-21T01:51:34;100738.22;;;23.31;74.49
46583;BME280;32309;48.858;8.252;2023-08-21T01:53:57;100732.38;;;23.19;77.93
46583;BME280;32309;48.858;8.252;2023-08-21T01:56:14;100737.34;;;23.22;77.83
46583;BME280;32309;48.858;8.252;2023-08-21T01:58:32;100731.59;;;23.27;78.58
46583;BME280;32309;48.858;8.252;2023-08-21T02:01:00;100735.03;;;23.27;76.21
46583;BME280;32309;48.858;8.252;2023-08-21T02:03:19;100740.66;;;23.24;74.98
46583;BME280;32309;48.858;8.252;2023-08-21T02:05:40;100744.28;;;23.23;78.04
46583;BME280;32309;48.858;8.252;2023-08-21T02:07:51;100748.25;;;23.19;77.48
46583;BME280;32309;48.858;8.252;2023-08-21T02:09:57;100741.63;;;23.15;77.15
46583;BME280;32309;48.858;8.252;2023-08-21T02:12:10;100740.06;;;23.04;77.51
46583;BME280;32309;48.858;8.252;2023-08-21T02:14:25;100742.03;;;23.02;75.62
46583;BME280;32309;48.858;8.252;2023-08-21T02:19:19;100744.16;;;22.99;75.93
46583;BME280;32309;48.858;8.252;2023-08-21T02:21:42;100738.88;;;22.99;78.99
46583;BME280;32309;48.858;8.252;2023-08-21T02:24:05;100740.19;;;23.03;78.10
46583;BME280;32309;48.858;8.252;2023-08-21T02:26:14;100742.34;;;22.99;78.56
46583;BME280;32309;48.858;8.252;2023-08-21T02:28:27;100746.63;;;23.00;78.91
46583;BME280;32309;48.858;8.252;2023-08-21T02:30:29;100752.44;;;23.04;78.73
46583;BME280;32309;48.858;8.252;2023-08-21T02:32:40;100746.00;;;23.06;78.20
46583;BME280;32309;48.858;8.252;2023-08-21T02:34:56;100749.13;;;23.02;77.56
46583;BME280;32309;48.858;8.252;2023-08-21T02:39:56;100755.06;;;23.04;78.49
46583;BME280;32309;48.858;8.252;2023-08-21T02:42:10;100752.44;;;23.04;78.64
46583;BME280;32309;48.858;8.252;2023-08-21T02:44:12;100750.94;;;23.01;78.36
46583;BME280;32309;48.858;8.252;2023-08-21T02:46:16;100759.34;;;22.97;79.41
46583;BME280;32309;48.858;8.252;2023-08-21T02:48:41;100764.94;;;22.93;78.33
46583;BME280;32309;48.858;8.252;2023-08-21T02:51:11;100763.75;;;22.88;77.61
46583;BME280;32309;48.858;8.252;2023-08-21T02:53:18;100759.94;;;22.82;78.19
46583;BME280;32309;48.858;8.252;2023-08-21T02:55:28;100761.06;;;22.80;76.13
46583;BME280;32309;48.858;8.252;2023-08-21T02:57:46;100758.22;;;22.73;77.98
46583;BME280;32309;48.858;8.252;2023-08-21T02:59:54;100769.25;;;22.68;79.35
46583;BME280;32309;48.858;8.252;2023-08-21T03:02:32;100764.44;;;22.64;77.23
46583;BME280;32309;48.858;8.252;2023-08-21T03:04:55;100764.63;;;22.62;79.74
46583;BME280;32309;48.858;8.252;2023-08-21T03:07:09;100763.59;;;22.63;79.09
46583;BME280;32309;48.858;8.252;2023-08-21T03:09:19;100761.81;;;22.64;79.94
46583;BME280;32309;48.858;8.252;2023-08-21T03:11:29;100756.19;;;22.67;79.45
46583;BME280;32309;48.858;8.252;2023-08-21T03:16:36;100761.84;;;22.72;79.63
46583;BME280;32309;48.858;8.252;2023-08-21T03:18:59;100761.84;;;22.72;79.15
46583;BME280;32309;48.858;8.252;2023-08-21T03:21:30;100761.16;;;22.70;79.40
46583;BME280;32309;48.858;8.252;2023-08-21T03:26:16;100751.75;;;22.67;80.09
46583;BME280;32309;48.858;8.252;2023-08-21T03:28:32;100755.22;;;22.68;79.71
46583;BME280;32309;48.858;8.252;2023-08-21T03:33:18;100757.72;;;22.69;79.71
46583;BME280;32309;48.858;8.252;2023-08-21T03:38:49;100756.72;;;22.70;79.85
46583;BME280;32309;48.858;8.252;2023-08-21T03:41:04;100756.72;;;22.70;79.64
46583;BME280;32309;48.858;8.252;2023-08-21T03:43:13;100754.25;;;22.69;77.12
46583;BME280;32309;48.858;8.252;2023-08-21T03:45:23;100753.25;;;22.70;79.20
46583;BME280;32309;48.858;8.252;2023-08-21T03:50:29;100758.84;;;22.67;79.46
46583;BME280;32309;48.858;8.252;2023-08-21T03:53:00;100765.97;;;22.66;79.79
46583;BME280;32309;48.858;8.252;2023-08-21T03:58:13;100768.06;;;22.63;79.23
46583;BME280;32309;48.858;8.252;2023-08-21T04:00:33;100762.59;;;22.56;79.21
46583;BME280;32309;48.858;8.252;2023-08-21T04:02:50;100762.22;;;22.51;79.24
46583;BME280;32309;48.858;8.252;2023-08-21T04:05:38;100767.50;;;22.51;80.01
46583;BME280;32309;48.858;8.252;2023-08-21T04:08:42;100767.34;;;22.52;80.19
46583;BME280;32309;48.858;8.252;2023-08-21T04:11:09;100767.19;;;22.54;80.04
46583;BME280;32309;48.858;8.252;2023-08-21T04:13:12;100767.72;;;22.57;79.37
46583;BME280;32309;48.858;8.252;2023-08-21T04:15:15;100774.94;;;22.55;77.70
46583;BME280;32309;48.858;8.252;2023-08-21T04:17:36;100772.78;;;22.51;79.75
46583;BME280;32309;48.858;8.252;2023-08-21T04:19:37;100770.28;;;22.49;78.65
46583;BME280;32309;48.858;8.252;2023-08-21T04:21:47;100767.94;;;22.46;78.52
46583;BME280;32309;48.858;8.252;2023-08-21T04:23:47;100772.41;;;22.46;78.66
46583;BME280;32309;48.858;8.252;2023-08-21T04:26:02;100772.56;;;22.44;79.77
46583;BME280;32309;48.858;8.252;2023-08-21T04:28:03;100773.53;;;22.43;80.19
46583;BME280;32309;48.858;8.252;2023-08-21T04:30:04;100770.91;;;22.43;79.58
46583;BME280;32309;48.858;8.252;2023-08-21T05:27:52;100809.97;;;22.57;78.29
46583;BME280;32309;48.858;8.252;2023-08-21T05:30:03;100811.78;;;22.57;77.39
46583;BME280;32309;48.858;8.252;2023-08-21T05:47:27;100819.81;;;22.73;77.52
46583;BME280;32309;48.858;8.252;2023-08-21T05:49:30;100816.72;;;22.78;77.82
46583;BME280;32309;48.858;8.252;2023-08-21T07:40:42;100847.28;;;25.01;74.84
46583;BME280;32309;48.858;8.252;2023-08-21T07:42:42;100851.59;;;25.02;74.98
46583;BME280;32309;48.858;8.252;2023-08-21T07:44:43;100849.56;;;25.04;74.96
46583;BME280;32309;48.858;8.252;2023-08-21T07:46:47;100853.22;;;25.12;75.04
46583;BME280;32309;48.858;8.252;2023-08-21T07:48:47;100850.53;;;25.20;74.97
46583;BME280;32309;48.858;8.252;2023-08-21T07:50:52;100857.16;;;25.24;74.62
46583;BME280;32309;48.858;8.252;2023-08-21T07:52:55;100856.47;;;25.30;73.96
46583;BME280;32309;48.858;8.252;2023-08-21T07:54:58;100857.28;;;25.31;73.65
46583;BME280;32309;48.858;8.252;2023-08-21T07:57:09;100858.28;;;25.30;73.95
46583;BME280;32309;48.858;8.252;2023-08-21T07:59:19;100863.94;;;25.35;73.61
46583;BME280;32309;48.858;8.252;2023-08-21T08:01:22;100866.09;;;25.39;73.74
46583;BME280;32309;48.858;8.252;2023-08-21T08:03:25;100856.44;;;25.47;73.18
46583;BME280;32309;48.858;8.252;2023-08-21T08:05:33;100853.59;;;25.48;73.20
46583;BME280;32309;48.858;8.252;2023-08-21T08:07:43;100864.34;;;25.55;73.35
46583;BME280;32309;48.858;8.252;2023-08-21T08:09:43;100853.72;;;25.55;72.85
46583;BME280;32309;48.858;8.252;2023-08-21T08:11:59;100850.22;;;25.63;72.96
46583;BME280;32309;48.858;8.252;2023-08-21T10:26:06;100784.34;;;28.92;60.17
46583;BME280;32309;48.858;8.252;2023-08-21T10:43:36;100774.09;;;29.37;58.13
46583;BME280;32309;48.858;8.252;2023-08-21T10:45:55;100783.16;;;29.36;56.39
46583;BME280;32309;48.858;8.252;2023-08-21T10:47:59;100772.66;;;29.35;56.38
46583;BME280;32309;48.858;8.252;2023-08-21T10:50:03;100772.66;;;29.35;56.80
46583;BME280;32309;48.858;8.252;2023-08-21T11:04:08;100765.34;;;29.70;56.35
46583;BME280;32309;48.858;8.252;2023-08-21T11:11:51;100755.13;;;29.87;54.94
46583;BME280;32309;48.858;8.252;2023-08-21T11:14:32;100753.69;;;29.98;54.65
46583;BME280;32309;48.858;8.252;2023-08-21T11:16:49;100758.63;;;30.01;54.12
46583;BME280;32309;48.858;8.252;2023-08-21T11:24:11;100751.63;;;30.07;53.06
46583;BME280;32309;48.858;8.252;2023-08-21T11:26:47;100746.50;;;30.06;53.05
46583;BME280;32309;48.858;8.252;2023-08-21T11:29:11;100753.69;;;30.12;53.56
46583;BME280;32309;48.858;8.252;2023-08-21T11:31:24;100745.06;;;30.16;52.49
46583;BME280;32309;48.858;8.252;2023-08-21T11:39:55;100739.69;;;30.30;52.16
46583;BME280;32309;48.858;8.252;2023-08-21T11:54:35;100741.75;;;30.54;50.44
46583;BME280;32309;48.858;8.252;2023-08-21T11:59:20;100739.66;;;30.63;50.58
46583;BME280;32309;48.858;8.252;2023-08-21T12:01:40;100737.19;;;30.62;50.67
46583;BME280;32309;48.858;8.252;2023-08-21T12:04:28;100739.47;;;30.58;50.52
46583;BME280;32309;48.858;8.252;2023-08-21T12:06:27;100731.03;;;30.61;50.70
46583;BME280;32309;48.858;8.252;2023-08-21T12:25:10;100716.13;;;30.85;49.41
46583;BME280;32309;48.858;8.252;2023-08-21T12:27:27;100720.81;;;30.97;49.82
46583;BME280;32309;48.858;8.252;2023-08-21T12:29:30;100708.63;;;31.08;50.40
46583;BME280;32309;48.858;8.252;2023-08-21T12:31:33;100702.63;;;31.19;50.45
46583;BME280;32309;48.858;8.252;2023-08-21T12:33:41;100701.97;;;31.24;50.27
46583;BME280;32309;48.858;8.252;2023-08-21T12:35:52;100699.06;;;31.25;50.19
46583;BME280;32309;48.858;8.252;2023-08-21T12:37:58;100692.47;;;31.28;49.89
46583;BME280;32309;48.858;8.252;2023-08-21T12:40:13;100694.75;;;31.24;49.81
46583;BME280;32309;48.858;8.252;2023-08-21T12:48:29;100691.22;;;31.30;48.79
46583;BME280;32309;48.858;8.252;2023-08-21T12:56:17;100678.72;;;31.49;48.36
46583;BME280;32309;48.858;8.252;2023-08-21T12:58:42;100680.97;;;31.52;49.41
46583;BME280;32309;48.858;8.252;2023-08-21T13:00:45;100680.75;;;31.54;47.76
46583;BME280;32309;48.858;8.252;2023-08-21T13:02:45;100685.88;;;31.62;48.96
46583;BME280;32309;48.858;8.252;2023-08-21T13:04:46;100678.81;;;31.68;48.10
46583;BME280;32309;48.858;8.252;2023-08-21T13:07:02;100682.25;;;31.75;47.74
46583;BME280;32309;48.858;8.252;2023-08-21T13:09:12;100681.69;;;31.73;47.57
46583;BME280;32309;48.858;8.252;2023-08-21T13:11:15;100680.03;;;31.72;47.84
46583;BME280;32309;48.858;8.252;2023-08-21T13:13:22;100676.31;;;31.73;47.90
46583;BME280;32309;48.858;8.252;2023-08-21T13:15:25;100664.56;;;31.74;46.82
46583;BME280;32309;48.858;8.252;2023-08-21T13:17:25;100668.38;;;31.85;47.80
46583;BME280;32309;48.858;8.252;2023-08-21T13:19:26;100665.81;;;31.97;47.04
46583;BME280;32309;48.858;8.252;2023-08-21T13:21:41;100665.06;;;32.08;47.50
46583;BME280;32309;48.858;8.252;2023-08-21T13:23:54;100667.09;;;32.13;46.87
46583;BME280;32309;48.858;8.252;2023-08-21T13:26:00;100665.63;;;32.17;46.57
46583;BME280;32309;48.858;8.252;2023-08-21T13:28:01;100666.63;;;32.16;46.14
46583;BME280;32309;48.858;8.252;2023-08-21T13:30:25;100662.31;;;32.15;46.26
46583;BME280;32309;48.858;8.252;2023-08-21T13:32:28;100671.41;;;32.14;45.31
46583;BME280;32309;48.858;8.252;2023-08-21T13:34:39;100666.25;;;32.12;45.40
46583;BME280;32309;48.858;8.252;2023-08-21T13:36:47;100666.03;;;32.14;45.85
46583;BME280;32309;48.858;8.252;2023-08-21T13:39:23;100666.03;;;32.14;45.57
46583;BME280;32309;48.858;8.252;2023-08-21T13:44:42;100662.06;;;32.23;44.50
46583;BME280;32309;48.858;8.252;2023-08-21T13:49:49;100664.66;;;32.30;42.84
46583;BME280;32309;48.858;8.252;2023-08-21T13:52:10;100653.47;;;32.33;43.33
46583;BME280;32309;48.858;8.252;2023-08-21T13:57:05;100657.34;;;32.37;43.23
46583;BME280;32309;48.858;8.252;2023-08-21T13:59:05;100652.22;;;32.35;43.18
46583;BME280;32309;48.858;8.252;2023-08-21T14:01:19;100652.69;;;32.32;43.49
46583;BME280;32309;48.858;8.252;2023-08-21T14:03:22;100652.81;;;32.38;43.64
46583;BME280;32309;48.858;8.252;2023-08-21T14:05:30;100647.47;;;32.38;42.83
46583;BME280;32309;48.858;8.252;2023-08-21T14:07:31;100648.28;;;32.38;42.69
46583;BME280;32309;48.858;8.252;2023-08-21T14:09:34;100641.88;;;32.39;42.96
46583;BME280;32309;48.858;8.252;2023-08-21T14:11:42;100636.13;;;32.35;43.42
46583;BME280;32309;48.858;8.252;2023-08-21T14:13:56;100632.03;;;32.33;43.61
46583;BME280;32309;48.858;8.252;2023-08-21T14:15:56;100636.75;;;32.38;42.63
46583;BME280;32309;48.858;8.252;2023-08-21T14:18:08;100631.94;;;32.40;42.11
46583;BME280;32309;48.858;8.252;2023-08-21T14:20:09;100631.28;;;32.44;43.06
46583;BME280;32309;48.858;8.252;2023-08-21T14:22:17;100633.75;;;32.46;43.04
46583;BME280;32309;48.858;8.252;2023-08-21T14:24:25;100630.69;;;32.42;43.00
46583;BME280;32309;48.858;8.252;2023-08-21T14:34:12;100628.59;;;32.44;40.71
46583;BME280;32309;48.858;8.252;2023-08-21T14:41:53;100619.22;;;32.54;41.56
46583;BME280;32309;48.858;8.252;2023-08-21T14:47:30;100629.56;;;32.50;40.91
46583;BME280;32309;48.858;8.252;2023-08-21T14:52:24;100617.41;;;32.47;41.85
46583;BME280;32309;48.858;8.252;2023-08-21T14:54:27;100616.94;;;32.50;42.56
46583;BME280;32309;48.858;8.252;2023-08-21T14:56:31;100615.69;;;32.53;40.91
46583;BME280;32309;48.858;8.252;2023-08-21T15:02:00;100607.56;;;32.60;40.95
46583;BME280;32309;48.858;8.252;2023-08-21T15:04:38;100604.19;;;32.64;41.68
46583;BME280;32309;48.858;8.252;2023-08-21T15:14:48;100596.69;;;32.55;41.86
46583;BME280;32309;48.858;8.252;2023-08-21T15:28:04;100578.16;;;32.34;42.03
46583;BME280;32309;48.858;8.252;2023-08-21T16:59:40;100536.16;;;31.47;46.67
46583;BME280;32309;48.858;8.252;2023-08-21T17:01:46;100526.28;;;31.48;46.53
46583;BME280;32309;48.858;8.252;2023-08-21T17:03:55;100525.09;;;31.44;46.86
46583;BME280;32309;48.858;8.252;2023-08-21T17:18:19;100531.81;;;31.28;47.18
46583;BME280;32309;48.858;8.252;2023-08-21T17:20:28;100525.03;;;31.25;47.26
46583;BME280;32309;48.858;8.252;2023-08-21T17:26:02;100526.72;;;31.19;47.85
46583;BME280;32309;48.858;8.252;2023-08-21T17:28:18;100523.66;;;31.16;48.55
46583;BME280;32309;48.858;8.252;2023-08-21T17:30:19;100522.84;;;31.15;47.95
46583;BME280;32309;48.858;8.252;2023-08-21T17:32:22;100523.06;;;31.14;48.90
46583;BME280;32309;48.858;8.252;2023-08-21T17:34:22;100521.66;;;31.11;48.84
46583;BME280;32309;48.858;8.252;2023-08-21T17:36:24;100524.56;;;31.10;48.95
46583;BME280;32309;48.858;8.252;2023-08-21T17:38:27;100523.94;;;31.08;48.70
46583;BME280;32309;48.858;8.252;2023-08-21T17:40:28;100524.38;;;31.05;49.17
46583;BME280;32309;48.858;8.252;2023-08-21T17:42:37;100525.59;;;31.02;49.51
46583;BME280;32309;48.858;8.252;2023-08-21T17:45:27;100523.38;;;30.99;49.62
46583;BME280;32309;48.858;8.252;2023-08-21T17:50:46;100526.28;;;30.91;50.60
46583;BME280;32309;48.858;8.252;2023-08-21T17:55:00;100522.91;;;30.77;51.11
46583;BME280;32309;48.858;8.252;2023-08-21T17:57:44;100526.66;;;30.69;52.16
46583;BME280;32309;48.858;8.252;2023-08-21T18:00:07;100531.66;;;30.59;53.58
46583;BME280;32309;48.858;8.252;2023-08-21T18:02:33;100532.50;;;30.52;50.97
46583;BME280;32309;48.858;8.252;2023-08-21T18:16:48;100543.53;;;30.17;55.03
46583;BME280;32309;48.858;8.252;2023-08-21T18:19:10;100537.59;;;30.09;56.27
46583;BME280;32309;48.858;8.252;2023-08-21T18:23:23;100537.44;;;29.97;56.13
46583;BME280;32309;48.858;8.252;2023-08-21T18:25:25;100553.28;;;29.92;56.00
46583;BME280;32309;48.858;8.252;2023-08-21T18:27:25;100544.03;;;29.87;55.46
46583;BME280;32309;48.858;8.252;2023-08-21T18:29:26;100546.50;;;29.82;56.51
46583;BME280;32309;48.858;8.252;2023-08-21T18:31:28;100551.63;;;29.77;56.36
46583;BME280;32309;48.858;8.252;2023-08-21T18:33:37;100554.53;;;29.69;56.60
46583;BME280;32309;48.858;8.252;2023-08-21T18:42:08;100565.03;;;29.44;58.36
46583;BME280;32309;48.858;8.252;2023-08-21T18:44:08;100567.28;;;29.40;61.41
46583;BME280;32309;48.858;8.252;2023-08-21T18:46:30;100570.97;;;29.39;61.48
46583;BME280;32309;48.858;8.252;2023-08-21T18:51:21;100574.28;;;29.34;62.24
46583;BME280;32309;48.858;8.252;2023-08-21T18:53:27;100576.94;;;29.28;62.70
46583;BME280;32309;48.858;8.252;2023-08-21T18:55:27;100582.84;;;29.23;63.08
46583;BME280;32309;48.858;8.252;2023-08-21T18:57:30;100585.13;;;29.19;62.52
46583;BME280;32309;48.858;8.252;2023-08-21T19:06:59;100581.78;;;28.84;59.12
46583;BME280;32309;48.858;8.252;2023-08-21T19:08:59;100582.38;;;28.79;62.71
46583;BME280;32309;48.858;8.252;2023-08-21T19:11:00;100581.56;;;28.79;62.86
46583;BME280;32309;48.858;8.252;2023-08-21T19:13:01;100583.81;;;28.75;62.62
46583;BME280;32309;48.858;8.252;2023-08-21T19:15:01;100590.34;;;28.72;61.62
46583;BME280;32309;48.858;8.252;2023-08-21T19:17:05;100585.81;;;28.66;61.95
46583;BME280;32309;48.858;8.252;2023-08-21T19:19:05;100592.94;;;28.59;60.99
